Terminal Aerodrome Forecast
Issued by NWS Grand Forks, ND

Home | Current Version | Previous Version | Text Only | Print | Product List | Glossary Off
Versions: 1 2 3 4 5 6 7 8 9 10 11 12 13 14 15 16 17 18 19 20 21 22 23

000
FTUS43 KFGF 271730
TAFFAR
TAF
KFAR 271730Z 2718/2818 02003KT P6SM SCT250
     FM280200 03005KT P6SM FEW008
     FM281000 04004KT 2SM BR SCT003
     FM281400 04004KT P6SM SCT250=

USA.gov is the U.S. government's official web portal to all federal, state and local government web resources and services.